sensor_id;sensor_type;location;lat;lon;timestamp;P1;durP1;ratioP1;P2;durP2;ratioP2
23394;SDS011;11870;53.084;18.206;2023-01-16T00:01:15;2.92;;;1.20;;
23394;SDS011;11870;53.084;18.206;2023-01-16T00:03:41;1.92;;;1.17;;
23394;SDS011;11870;53.084;18.206;2023-01-16T00:06:08;4.18;;;1.30;;
23394;SDS011;11870;53.084;18.206;2023-01-16T00:08:34;5.20;;;1.45;;
23394;SDS011;11870;53.084;18.206;2023-01-16T00:11:00;5.07;;;1.60;;
23394;SDS011;11870;53.084;18.206;2023-01-16T00:13:27;5.50;;;1.13;;
23394;SDS011;11870;53.084;18.206;2023-01-16T00:15:53;2.38;;;1.00;;
23394;SDS011;11870;53.084;18.206;2023-01-16T00:18:19;8.80;;;1.23;;
23394;SDS011;11870;53.084;18.206;2023-01-16T00:20:46;4.93;;;1.45;;
23394;SDS011;11870;53.084;18.206;2023-01-16T00:23:13;3.53;;;1.10;;
23394;SDS011;11870;53.084;18.206;2023-01-16T00:25:40;6.60;;;1.33;;
23394;SDS011;11870;53.084;18.206;2023-01-16T00:28:07;5.88;;;1.70;;
23394;SDS011;11870;53.084;18.206;2023-01-16T00:30:35;4.85;;;1.95;;
23394;SDS011;11870;53.084;18.206;2023-01-16T00:33:02;5.80;;;1.50;;
23394;SDS011;11870;53.084;18.206;2023-01-16T00:35:29;4.65;;;1.35;;
23394;SDS011;11870;53.084;18.206;2023-01-16T00:37:55;2.45;;;1.05;;
23394;SDS011;11870;53.084;18.206;2023-01-16T00:40:22;2.42;;;1.00;;
23394;SDS011;11870;53.084;18.206;2023-01-16T00:42:49;2.28;;;1.13;;
23394;SDS011;11870;53.084;18.206;2023-01-16T00:45:15;3.88;;;1.35;;
23394;SDS011;11870;53.084;18.206;2023-01-16T00:47:41;4.90;;;1.35;;
23394;SDS011;11870;53.084;18.206;2023-01-16T00:50:08;3.00;;;0.93;;
23394;SDS011;11870;53.084;18.206;2023-01-16T00:52:34;1.88;;;0.90;;
23394;SDS011;11870;53.084;18.206;2023-01-16T00:55:01;3.15;;;1.10;;
23394;SDS011;11870;53.084;18.206;2023-01-16T00:57:27;1.90;;;1.00;;
23394;SDS011;11870;53.084;18.206;2023-01-16T00:59:54;3.38;;;1.40;;
23394;SDS011;11870;53.084;18.206;2023-01-16T01:02:20;2.88;;;1.30;;
23394;SDS011;11870;53.084;18.206;2023-01-16T01:04:47;5.63;;;1.30;;
23394;SDS011;11870;53.084;18.206;2023-01-16T01:07:13;3.60;;;1.02;;
23394;SDS011;11870;53.084;18.206;2023-01-16T01:09:39;2.55;;;1.30;;
23394;SDS011;11870;53.084;18.206;2023-01-16T01:12:05;3.58;;;0.98;;
23394;SDS011;11870;53.084;18.206;2023-01-16T01:14:32;2.25;;;1.10;;
23394;SDS011;11870;53.084;18.206;2023-01-16T01:16:58;2.78;;;1.13;;
23394;SDS011;11870;53.084;18.206;2023-01-16T01:19:25;3.92;;;1.42;;
23394;SDS011;11870;53.084;18.206;2023-01-16T01:21:51;3.78;;;1.10;;
23394;SDS011;11870;53.084;18.206;2023-01-16T01:24:17;3.13;;;1.25;;
23394;SDS011;11870;53.084;18.206;2023-01-16T01:26:44;1.13;;;0.98;;
23394;SDS011;11870;53.084;18.206;2023-01-16T01:29:11;2.05;;;1.08;;
23394;SDS011;11870;53.084;18.206;2023-01-16T01:31:38;2.70;;;1.15;;
23394;SDS011;11870;53.084;18.206;2023-01-16T01:34:04;2.25;;;0.95;;
23394;SDS011;11870;53.084;18.206;2023-01-16T01:36:30;5.53;;;1.17;;
23394;SDS011;11870;53.084;18.206;2023-01-16T01:38:56;2.00;;;1.13;;
23394;SDS011;11870;53.084;18.206;2023-01-16T01:41:22;2.50;;;1.23;;
23394;SDS011;11870;53.084;18.206;2023-01-16T01:43:53;1.75;;;0.90;;
23394;SDS011;11870;53.084;18.206;2023-01-16T01:48:50;3.30;;;1.05;;
23394;SDS011;11870;53.084;18.206;2023-01-16T01:51:24;2.97;;;0.93;;
23394;SDS011;11870;53.084;18.206;2023-01-16T01:53:59;1.20;;;0.90;;
23394;SDS011;11870;53.084;18.206;2023-01-16T01:56:33;1.25;;;0.90;;
23394;SDS011;11870;53.084;18.206;2023-01-16T01:59:18;2.83;;;1.20;;
23394;SDS011;11870;53.084;18.206;2023-01-16T02:01:49;5.00;;;1.17;;
23394;SDS011;11870;53.084;18.206;2023-01-16T02:04:16;3.30;;;1.30;;
23394;SDS011;11870;53.084;18.206;2023-01-16T02:06:51;2.70;;;1.33;;
23394;SDS011;11870;53.084;18.206;2023-01-16T02:09:20;2.05;;;1.10;;
23394;SDS011;11870;53.084;18.206;2023-01-16T02:11:55;2.10;;;0.90;;
23394;SDS011;11870;53.084;18.206;2023-01-16T02:14:26;1.83;;;0.98;;
23394;SDS011;11870;53.084;18.206;2023-01-16T02:16:56;3.47;;;1.52;;
23394;SDS011;11870;53.084;18.206;2023-01-16T02:25:33;3.03;;;1.30;;
23394;SDS011;11870;53.084;18.206;2023-01-16T02:42:36;3.42;;;1.30;;
23394;SDS011;11870;53.084;18.206;2023-01-16T02:50:36;2.75;;;1.10;;
23394;SDS011;11870;53.084;18.206;2023-01-16T02:53:29;3.22;;;1.27;;
23394;SDS011;11870;53.084;18.206;2023-01-16T02:56:08;1.98;;;1.00;;
23394;SDS011;11870;53.084;18.206;2023-01-16T02:58:40;2.15;;;1.05;;
23394;SDS011;11870;53.084;18.206;2023-01-16T03:01:09;4.45;;;1.23;;
23394;SDS011;11870;53.084;18.206;2023-01-16T03:06:28;2.65;;;1.40;;
23394;SDS011;11870;53.084;18.206;2023-01-16T03:09:06;2.63;;;1.33;;
23394;SDS011;11870;53.084;18.206;2023-01-16T03:14:55;2.88;;;1.00;;
23394;SDS011;11870;53.084;18.206;2023-01-16T03:17:37;3.97;;;1.35;;
23394;SDS011;11870;53.084;18.206;2023-01-16T03:20:09;2.33;;;1.10;;
23394;SDS011;11870;53.084;18.206;2023-01-16T03:22:57;6.10;;;1.40;;
23394;SDS011;11870;53.084;18.206;2023-01-16T03:25:45;2.72;;;1.08;;
23394;SDS011;11870;53.084;18.206;2023-01-16T03:28:34;1.38;;;1.00;;
23394;SDS011;11870;53.084;18.206;2023-01-16T03:36:40;1.52;;;0.95;;
23394;SDS011;11870;53.084;18.206;2023-01-16T03:39:32;1.38;;;1.00;;
23394;SDS011;11870;53.084;18.206;2023-01-16T03:42:09;4.28;;;0.80;;
23394;SDS011;11870;53.084;18.206;2023-01-16T03:44:43;3.03;;;1.08;;
23394;SDS011;11870;53.084;18.206;2023-01-16T03:47:19;5.03;;;1.60;;
23394;SDS011;11870;53.084;18.206;2023-01-16T03:49:51;3.78;;;1.40;;
23394;SDS011;11870;53.084;18.206;2023-01-16T03:52:21;2.83;;;1.25;;
23394;SDS011;11870;53.084;18.206;2023-01-16T03:54:57;5.72;;;1.67;;
23394;SDS011;11870;53.084;18.206;2023-01-16T03:57:49;1.90;;;1.15;;
23394;SDS011;11870;53.084;18.206;2023-01-16T04:00:22;1.60;;;1.05;;
23394;SDS011;11870;53.084;18.206;2023-01-16T04:03:15;1.67;;;1.10;;
23394;SDS011;11870;53.084;18.206;2023-01-16T04:05:54;2.50;;;1.10;;
23394;SDS011;11870;53.084;18.206;2023-01-16T04:08:24;2.10;;;1.08;;
23394;SDS011;11870;53.084;18.206;2023-01-16T04:10:56;1.75;;;0.90;;
23394;SDS011;11870;53.084;18.206;2023-01-16T04:13:25;1.90;;;1.20;;
23394;SDS011;11870;53.084;18.206;2023-01-16T04:15:55;4.03;;;1.50;;
23394;SDS011;11870;53.084;18.206;2023-01-16T04:18:24;3.10;;;1.30;;
23394;SDS011;11870;53.084;18.206;2023-01-16T04:20:55;4.35;;;1.15;;
23394;SDS011;11870;53.084;18.206;2023-01-16T04:23:22;2.72;;;1.27;;
23394;SDS011;11870;53.084;18.206;2023-01-16T04:25:48;4.80;;;1.50;;
23394;SDS011;11870;53.084;18.206;2023-01-16T04:28:14;2.40;;;1.38;;
23394;SDS011;11870;53.084;18.206;2023-01-16T04:30:40;3.50;;;1.38;;
23394;SDS011;11870;53.084;18.206;2023-01-16T04:33:07;3.85;;;1.48;;
23394;SDS011;11870;53.084;18.206;2023-01-16T04:35:33;3.88;;;1.40;;
23394;SDS011;11870;53.084;18.206;2023-01-16T04:38:00;2.45;;;1.15;;
23394;SDS011;11870;53.084;18.206;2023-01-16T04:40:26;4.80;;;1.33;;
23394;SDS011;11870;53.084;18.206;2023-01-16T04:42:53;3.42;;;1.27;;
23394;SDS011;11870;53.084;18.206;2023-01-16T04:45:22;3.75;;;1.30;;
23394;SDS011;11870;53.084;18.206;2023-01-16T04:47:49;3.97;;;1.60;;
23394;SDS011;11870;53.084;18.206;2023-01-16T04:50:16;6.53;;;1.95;;
23394;SDS011;11870;53.084;18.206;2023-01-16T04:52:43;5.93;;;2.35;;
23394;SDS011;11870;53.084;18.206;2023-01-16T04:55:10;4.35;;;1.90;;
23394;SDS011;11870;53.084;18.206;2023-01-16T04:57:36;4.32;;;1.90;;
23394;SDS011;11870;53.084;18.206;2023-01-16T05:00:03;4.50;;;1.58;;
23394;SDS011;11870;53.084;18.206;2023-01-16T05:02:30;6.30;;;1.67;;
23394;SDS011;11870;53.084;18.206;2023-01-16T05:04:57;3.78;;;1.58;;
23394;SDS011;11870;53.084;18.206;2023-01-16T05:07:23;2.97;;;1.27;;
23394;SDS011;11870;53.084;18.206;2023-01-16T05:09:51;5.68;;;2.05;;
23394;SDS011;11870;53.084;18.206;2023-01-16T05:12:18;5.97;;;1.45;;
23394;SDS011;11870;53.084;18.206;2023-01-16T05:14:44;6.55;;;2.40;;
23394;SDS011;11870;53.084;18.206;2023-01-16T05:17:11;5.63;;;1.90;;
23394;SDS011;11870;53.084;18.206;2023-01-16T05:19:37;3.60;;;1.77;;
23394;SDS011;11870;53.084;18.206;2023-01-16T05:22:03;5.00;;;1.58;;
23394;SDS011;11870;53.084;18.206;2023-01-16T05:24:29;7.45;;;1.88;;
23394;SDS011;11870;53.084;18.206;2023-01-16T05:26:56;2.50;;;1.23;;
23394;SDS011;11870;53.084;18.206;2023-01-16T05:29:22;5.38;;;1.50;;
23394;SDS011;11870;53.084;18.206;2023-01-16T05:31:48;3.13;;;1.48;;
23394;SDS011;11870;53.084;18.206;2023-01-16T05:34:15;2.33;;;1.20;;
23394;SDS011;11870;53.084;18.206;2023-01-16T05:36:41;2.55;;;1.30;;
23394;SDS011;11870;53.084;18.206;2023-01-16T05:39:07;1.77;;;1.00;;
23394;SDS011;11870;53.084;18.206;2023-01-16T05:41:34;3.55;;;1.73;;
23394;SDS011;11870;53.084;18.206;2023-01-16T05:44:01;2.90;;;1.40;;
23394;SDS011;11870;53.084;18.206;2023-01-16T05:46:27;4.95;;;1.77;;
23394;SDS011;11870;53.084;18.206;2023-01-16T05:48:54;7.75;;;2.72;;
23394;SDS011;11870;53.084;18.206;2023-01-16T05:51:20;3.55;;;1.70;;
23394;SDS011;11870;53.084;18.206;2023-01-16T05:53:50;4.55;;;1.60;;
23394;SDS011;11870;53.084;18.206;2023-01-16T05:56:17;5.75;;;2.00;;
23394;SDS011;11870;53.084;18.206;2023-01-16T05:58:46;4.22;;;1.50;;
23394;SDS011;11870;53.084;18.206;2023-01-16T06:01:12;6.15;;;1.67;;
23394;SDS011;11870;53.084;18.206;2023-01-16T06:03:39;3.03;;;1.45;;
23394;SDS011;11870;53.084;18.206;2023-01-16T06:06:05;4.82;;;1.65;;
23394;SDS011;11870;53.084;18.206;2023-01-16T06:08:31;4.65;;;1.45;;
23394;SDS011;11870;53.084;18.206;2023-01-16T06:10:57;3.15;;;1.50;;
23394;SDS011;11870;53.084;18.206;2023-01-16T06:13:24;3.28;;;1.60;;
23394;SDS011;11870;53.084;18.206;2023-01-16T06:15:50;5.18;;;1.60;;
23394;SDS011;11870;53.084;18.206;2023-01-16T06:18:16;3.08;;;1.70;;
23394;SDS011;11870;53.084;18.206;2023-01-16T06:20:43;2.20;;;1.50;;
23394;SDS011;11870;53.084;18.206;2023-01-16T06:23:09;3.13;;;1.65;;
23394;SDS011;11870;53.084;18.206;2023-01-16T06:25:36;10.25;;;3.75;;
23394;SDS011;11870;53.084;18.206;2023-01-16T06:28:02;7.38;;;2.60;;
23394;SDS011;11870;53.084;18.206;2023-01-16T06:30:28;2.85;;;1.38;;
23394;SDS011;11870;53.084;18.206;2023-01-16T06:32:55;3.28;;;1.67;;
23394;SDS011;11870;53.084;18.206;2023-01-16T06:35:21;4.00;;;2.15;;
23394;SDS011;11870;53.084;18.206;2023-01-16T06:37:47;3.22;;;1.50;;
23394;SDS011;11870;53.084;18.206;2023-01-16T06:40:14;4.30;;;1.50;;
23394;SDS011;11870;53.084;18.206;2023-01-16T06:42:40;5.07;;;1.42;;
23394;SDS011;11870;53.084;18.206;2023-01-16T06:45:06;3.38;;;1.38;;
23394;SDS011;11870;53.084;18.206;2023-01-16T06:47:33;4.40;;;2.45;;
23394;SDS011;11870;53.084;18.206;2023-01-16T06:50:00;8.07;;;2.90;;
23394;SDS011;11870;53.084;18.206;2023-01-16T06:52:26;5.28;;;2.13;;
23394;SDS011;11870;53.084;18.206;2023-01-16T06:54:53;4.13;;;2.10;;
23394;SDS011;11870;53.084;18.206;2023-01-16T06:57:19;2.92;;;1.70;;
23394;SDS011;11870;53.084;18.206;2023-01-16T06:59:45;4.68;;;1.95;;
23394;SDS011;11870;53.084;18.206;2023-01-16T07:02:12;6.85;;;2.10;;
23394;SDS011;11870;53.084;18.206;2023-01-16T07:04:38;3.92;;;2.03;;
23394;SDS011;11870;53.084;18.206;2023-01-16T07:07:04;4.25;;;2.10;;
23394;SDS011;11870;53.084;18.206;2023-01-16T07:09:30;4.45;;;2.00;;
23394;SDS011;11870;53.084;18.206;2023-01-16T07:11:57;4.47;;;1.85;;
23394;SDS011;11870;53.084;18.206;2023-01-16T07:14:24;7.47;;;2.35;;
23394;SDS011;11870;53.084;18.206;2023-01-16T07:17:11;3.90;;;2.60;;
23394;SDS011;11870;53.084;18.206;2023-01-16T07:19:57;3.72;;;2.35;;
23394;SDS011;11870;53.084;18.206;2023-01-16T07:22:42;7.93;;;2.58;;
23394;SDS011;11870;53.084;18.206;2023-01-16T07:25:12;4.72;;;2.55;;
23394;SDS011;11870;53.084;18.206;2023-01-16T07:27:41;8.75;;;2.70;;
23394;SDS011;11870;53.084;18.206;2023-01-16T07:30:08;9.88;;;3.47;;
23394;SDS011;11870;53.084;18.206;2023-01-16T07:32:35;11.45;;;4.28;;
23394;SDS011;11870;53.084;18.206;2023-01-16T07:35:03;17.00;;;5.63;;
23394;SDS011;11870;53.084;18.206;2023-01-16T07:37:29;16.25;;;4.15;;
23394;SDS011;11870;53.084;18.206;2023-01-16T07:39:55;12.73;;;4.88;;
23394;SDS011;11870;53.084;18.206;2023-01-16T07:42:21;13.82;;;4.97;;
23394;SDS011;11870;53.084;18.206;2023-01-16T07:44:48;12.40;;;4.22;;
23394;SDS011;11870;53.084;18.206;2023-01-16T07:47:14;9.30;;;4.68;;
23394;SDS011;11870;53.084;18.206;2023-01-16T07:49:41;9.23;;;3.95;;
23394;SDS011;11870;53.084;18.206;2023-01-16T07:52:07;7.50;;;3.60;;
23394;SDS011;11870;53.084;18.206;2023-01-16T07:54:33;9.88;;;4.30;;
23394;SDS011;11870;53.084;18.206;2023-01-16T07:57:01;9.40;;;4.18;;
23394;SDS011;11870;53.084;18.206;2023-01-16T07:59:28;9.52;;;4.00;;
23394;SDS011;11870;53.084;18.206;2023-01-16T08:01:54;7.28;;;4.10;;
23394;SDS011;11870;53.084;18.206;2023-01-16T08:04:20;5.72;;;3.47;;
23394;SDS011;11870;53.084;18.206;2023-01-16T08:06:47;9.20;;;4.32;;
23394;SDS011;11870;53.084;18.206;2023-01-16T08:09:13;14.55;;;4.32;;
23394;SDS011;11870;53.084;18.206;2023-01-16T08:11:39;8.10;;;3.70;;
23394;SDS011;11870;53.084;18.206;2023-01-16T08:14:12;11.32;;;4.20;;
23394;SDS011;11870;53.084;18.206;2023-01-16T08:16:38;6.68;;;3.50;;
23394;SDS011;11870;53.084;18.206;2023-01-16T08:19:05;7.57;;;3.40;;
23394;SDS011;11870;53.084;18.206;2023-01-16T08:21:31;8.50;;;3.58;;
23394;SDS011;11870;53.084;18.206;2023-01-16T08:23:58;7.00;;;3.58;;
23394;SDS011;11870;53.084;18.206;2023-01-16T08:26:23;7.22;;;3.10;;
23394;SDS011;11870;53.084;18.206;2023-01-16T08:28:50;11.15;;;3.75;;
23394;SDS011;11870;53.084;18.206;2023-01-16T08:31:17;9.50;;;4.97;;
23394;SDS011;11870;53.084;18.206;2023-01-16T08:33:44;6.57;;;3.53;;
23394;SDS011;11870;53.084;18.206;2023-01-16T08:36:12;6.72;;;3.10;;
23394;SDS011;11870;53.084;18.206;2023-01-16T08:38:39;6.57;;;2.78;;
23394;SDS011;11870;53.084;18.206;2023-01-16T08:41:05;5.95;;;2.92;;
23394;SDS011;11870;53.084;18.206;2023-01-16T08:43:55;9.50;;;4.70;;
23394;SDS011;11870;53.084;18.206;2023-01-16T08:46:40;8.40;;;4.18;;
23394;SDS011;11870;53.084;18.206;2023-01-16T08:49:25;10.05;;;3.50;;
23394;SDS011;11870;53.084;18.206;2023-01-16T08:52:10;7.72;;;3.08;;
23394;SDS011;11870;53.084;18.206;2023-01-16T08:54:37;4.93;;;2.60;;
23394;SDS011;11870;53.084;18.206;2023-01-16T08:57:04;5.20;;;2.35;;
23394;SDS011;11870;53.084;18.206;2023-01-16T08:59:30;4.15;;;2.25;;
23394;SDS011;11870;53.084;18.206;2023-01-16T09:02:01;6.57;;;2.72;;
23394;SDS011;11870;53.084;18.206;2023-01-16T09:04:30;3.95;;;2.53;;
23394;SDS011;11870;53.084;18.206;2023-01-16T09:06:56;6.35;;;3.38;;
23394;SDS011;11870;53.084;18.206;2023-01-16T09:09:22;5.25;;;2.95;;
23394;SDS011;11870;53.084;18.206;2023-01-16T09:11:53;5.22;;;2.47;;
23394;SDS011;11870;53.084;18.206;2023-01-16T09:14:46;6.60;;;3.22;;
23394;SDS011;11870;53.084;18.206;2023-01-16T09:17:12;7.00;;;3.17;;
23394;SDS011;11870;53.084;18.206;2023-01-16T09:19:39;7.63;;;2.92;;
23394;SDS011;11870;53.084;18.206;2023-01-16T09:22:05;8.38;;;3.38;;
23394;SDS011;11870;53.084;18.206;2023-01-16T09:24:32;6.90;;;3.05;;
23394;SDS011;11870;53.084;18.206;2023-01-16T09:26:58;7.03;;;3.15;;
23394;SDS011;11870;53.084;18.206;2023-01-16T09:29:25;4.97;;;2.97;;
23394;SDS011;11870;53.084;18.206;2023-01-16T09:31:52;8.18;;;3.22;;
23394;SDS011;11870;53.084;18.206;2023-01-16T09:34:18;6.25;;;2.88;;
23394;SDS011;11870;53.084;18.206;2023-01-16T09:36:44;7.70;;;3.53;;
23394;SDS011;11870;53.084;18.206;2023-01-16T09:39:11;9.80;;;3.30;;
23394;SDS011;11870;53.084;18.206;2023-01-16T09:41:40;9.07;;;4.18;;
23394;SDS011;11870;53.084;18.206;2023-01-16T09:44:43;8.55;;;4.10;;
23394;SDS011;11870;53.084;18.206;2023-01-16T09:47:11;8.77;;;3.58;;
23394;SDS011;11870;53.084;18.206;2023-01-16T09:49:48;10.70;;;3.95;;
23394;SDS011;11870;53.084;18.206;2023-01-16T09:52:20;9.57;;;3.58;;
23394;SDS011;11870;53.084;18.206;2023-01-16T09:55:55;9.95;;;3.85;;
23394;SDS011;11870;53.084;18.206;2023-01-16T09:58:16;8.75;;;3.60;;
23394;SDS011;11870;53.084;18.206;2023-01-16T10:01:01;8.57;;;3.53;;
23394;SDS011;11870;53.084;18.206;2023-01-16T10:03:47;10.40;;;4.25;;
23394;SDS011;11870;53.084;18.206;2023-01-16T10:06:19;11.27;;;4.95;;
23394;SDS011;11870;53.084;18.206;2023-01-16T10:09:02;12.18;;;4.90;;
23394;SDS011;11870;53.084;18.206;2023-01-16T10:11:43;9.02;;;3.97;;
23394;SDS011;11870;53.084;18.206;2023-01-16T10:16:48;11.82;;;4.95;;
23394;SDS011;11870;53.084;18.206;2023-01-16T10:19:43;10.57;;;4.80;;
23394;SDS011;11870;53.084;18.206;2023-01-16T10:22:34;9.65;;;4.03;;
23394;SDS011;11870;53.084;18.206;2023-01-16T10:28:18;11.18;;;4.05;;
23394;SDS011;11870;53.084;18.206;2023-01-16T10:31:50;11.13;;;4.18;;
23394;SDS011;11870;53.084;18.206;2023-01-16T10:34:38;11.95;;;4.82;;
23394;SDS011;11870;53.084;18.206;2023-01-16T10:37:01;14.25;;;5.93;;
23394;SDS011;11870;53.084;18.206;2023-01-16T10:39:31;11.63;;;5.88;;
23394;SDS011;11870;53.084;18.206;2023-01-16T10:48:02;13.10;;;5.32;;
23394;SDS011;11870;53.084;18.206;2023-01-16T10:50:47;8.38;;;4.07;;
23394;SDS011;11870;53.084;18.206;2023-01-16T10:53:14;11.30;;;3.75;;
23394;SDS011;11870;53.084;18.206;2023-01-16T10:55:45;9.68;;;4.43;;
23394;SDS011;11870;53.084;18.206;2023-01-16T10:58:35;9.27;;;4.30;;
23394;SDS011;11870;53.084;18.206;2023-01-16T11:01:14;9.00;;;4.32;;
23394;SDS011;11870;53.084;18.206;2023-01-16T11:08:38;8.55;;;3.83;;
23394;SDS011;11870;53.084;18.206;2023-01-16T11:11:08;7.55;;;3.47;;
23394;SDS011;11870;53.084;18.206;2023-01-16T11:13:56;8.20;;;3.58;;
23394;SDS011;11870;53.084;18.206;2023-01-16T11:16:41;7.82;;;3.22;;
23394;SDS011;11870;53.084;18.206;2023-01-16T11:19:27;7.50;;;3.95;;
23394;SDS011;11870;53.084;18.206;2023-01-16T11:21:58;10.32;;;4.15;;
23394;SDS011;11870;53.084;18.206;2023-01-16T11:24:35;9.60;;;3.92;;
23394;SDS011;11870;53.084;18.206;2023-01-16T11:27:06;5.53;;;3.47;;
23394;SDS011;11870;53.084;18.206;2023-01-16T11:29:39;8.70;;;3.22;;
23394;SDS011;11870;53.084;18.206;2023-01-16T11:32:08;8.73;;;4.03;;
23394;SDS011;11870;53.084;18.206;2023-01-16T11:34:43;8.63;;;4.38;;
23394;SDS011;11870;53.084;18.206;2023-01-16T11:37:12;8.25;;;3.92;;
23394;SDS011;11870;53.084;18.206;2023-01-16T11:39:40;13.05;;;4.45;;
23394;SDS011;11870;53.084;18.206;2023-01-16T11:42:11;7.32;;;3.40;;
23394;SDS011;11870;53.084;18.206;2023-01-16T11:44:57;13.02;;;3.80;;
23394;SDS011;11870;53.084;18.206;2023-01-16T11:47:43;10.85;;;4.18;;
23394;SDS011;11870;53.084;18.206;2023-01-16T11:50:29;9.43;;;4.57;;
23394;SDS011;11870;53.084;18.206;2023-01-16T11:53:01;10.85;;;4.38;;
23394;SDS011;11870;53.084;18.206;2023-01-16T11:55:39;8.50;;;3.35;;
23394;SDS011;11870;53.084;18.206;2023-01-16T11:58:11;9.13;;;3.80;;
23394;SDS011;11870;53.084;18.206;2023-01-16T12:00:53;9.00;;;3.78;;
23394;SDS011;11870;53.084;18.206;2023-01-16T12:03:33;8.13;;;3.58;;
23394;SDS011;11870;53.084;18.206;2023-01-16T12:06:17;12.60;;;3.45;;
23394;SDS011;11870;53.084;18.206;2023-01-16T12:14:59;10.88;;;3.53;;
23394;SDS011;11870;53.084;18.206;2023-01-16T12:17:31;6.82;;;3.40;;
23394;SDS011;11870;53.084;18.206;2023-01-16T12:20:51;10.68;;;4.50;;
23394;SDS011;11870;53.084;18.206;2023-01-16T12:23:22;14.77;;;6.30;;
23394;SDS011;11870;53.084;18.206;2023-01-16T12:31:18;9.95;;;5.47;;
23394;SDS011;11870;53.084;18.206;2023-01-16T12:34:13;8.25;;;5.05;;
23394;SDS011;11870;53.084;18.206;2023-01-16T12:39:37;14.80;;;6.03;;
23394;SDS011;11870;53.084;18.206;2023-01-16T12:42:17;14.27;;;6.03;;
23394;SDS011;11870;53.084;18.206;2023-01-16T13:01:09;9.50;;;4.80;;
23394;SDS011;11870;53.084;18.206;2023-01-16T13:06:21;15.95;;;7.43;;
23394;SDS011;11870;53.084;18.206;2023-01-16T13:08:53;11.73;;;6.20;;
23394;SDS011;11870;53.084;18.206;2023-01-16T13:11:32;11.98;;;4.30;;
23394;SDS011;11870;53.084;18.206;2023-01-16T13:14:34;9.18;;;4.65;;
23394;SDS011;11870;53.084;18.206;2023-01-16T13:17:02;10.90;;;4.03;;
23394;SDS011;11870;53.084;18.206;2023-01-16T13:19:34;13.70;;;4.40;;
23394;SDS011;11870;53.084;18.206;2023-01-16T13:22:19;10.60;;;4.55;;
23394;SDS011;11870;53.084;18.206;2023-01-16T13:24:52;8.65;;;3.35;;
23394;SDS011;11870;53.084;18.206;2023-01-16T13:27:38;9.50;;;4.18;;
23394;SDS011;11870;53.084;18.206;2023-01-16T13:30:34;10.93;;;4.82;;
23394;SDS011;11870;53.084;18.206;2023-01-16T13:33:03;10.10;;;4.80;;
23394;SDS011;11870;53.084;18.206;2023-01-16T13:35:35;11.02;;;4.82;;
23394;SDS011;11870;53.084;18.206;2023-01-16T13:41:17;12.07;;;4.68;;
23394;SDS011;11870;53.084;18.206;2023-01-16T13:43:28;11.60;;;4.40;;
23394;SDS011;11870;53.084;18.206;2023-01-16T13:46:16;11.13;;;4.60;;
23394;SDS011;11870;53.084;18.206;2023-01-16T13:48:43;9.85;;;3.83;;
23394;SDS011;11870;53.084;18.206;2023-01-16T13:51:17;8.52;;;4.05;;
23394;SDS011;11870;53.084;18.206;2023-01-16T13:53:46;16.25;;;4.70;;
23394;SDS011;11870;53.084;18.206;2023-01-16T13:56:20;8.85;;;4.15;;
23394;SDS011;11870;53.084;18.206;2023-01-16T13:58:49;11.23;;;4.65;;
23394;SDS011;11870;53.084;18.206;2023-01-16T14:06:46;15.60;;;5.65;;
23394;SDS011;11870;53.084;18.206;2023-01-16T14:11:57;7.30;;;4.18;;
23394;SDS011;11870;53.084;18.206;2023-01-16T14:14:32;15.55;;;6.20;;
23394;SDS011;11870;53.084;18.206;2023-01-16T14:17:18;11.18;;;5.07;;
23394;SDS011;11870;53.084;18.206;2023-01-16T14:22:22;11.00;;;4.75;;
23394;SDS011;11870;53.084;18.206;2023-01-16T14:24:53;14.52;;;5.53;;
23394;SDS011;11870;53.084;18.206;2023-01-16T14:27:32;14.80;;;5.50;;
23394;SDS011;11870;53.084;18.206;2023-01-16T14:30:03;11.20;;;5.45;;
23394;SDS011;11870;53.084;18.206;2023-01-16T14:32:32;14.75;;;5.22;;
23394;SDS011;11870;53.084;18.206;2023-01-16T14:35:17;13.25;;;6.00;;
23394;SDS011;11870;53.084;18.206;2023-01-16T14:37:58;13.57;;;5.70;;
23394;SDS011;11870;53.084;18.206;2023-01-16T14:40:38;10.90;;;4.75;;
23394;SDS011;11870;53.084;18.206;2023-01-16T14:43:30;10.38;;;5.18;;
23394;SDS011;11870;53.084;18.206;2023-01-16T14:52:36;12.45;;;5.50;;
23394;SDS011;11870;53.084;18.206;2023-01-16T14:55:52;17.70;;;6.97;;
23394;SDS011;11870;53.084;18.206;2023-01-16T15:01:23;15.68;;;6.70;;
23394;SDS011;11870;53.084;18.206;2023-01-16T15:04:11;20.67;;;7.47;;
23394;SDS011;11870;53.084;18.206;2023-01-16T15:06:40;18.35;;;7.47;;
23394;SDS011;11870;53.084;18.206;2023-01-16T15:09:12;17.38;;;7.30;;
23394;SDS011;11870;53.084;18.206;2023-01-16T15:11:50;18.77;;;7.40;;
23394;SDS011;11870;53.084;18.206;2023-01-16T15:14:24;14.88;;;5.93;;
23394;SDS011;11870;53.084;18.206;2023-01-16T15:16:55;14.13;;;5.63;;
23394;SDS011;11870;53.084;18.206;2023-01-16T15:22:50;13.80;;;5.68;;
23394;SDS011;11870;53.084;18.206;2023-01-16T15:31:06;345.80;;;97.10;;
23394;SDS011;11870;53.084;18.206;2023-01-16T15:33:41;186.70;;;49.45;;
23394;SDS011;11870;53.084;18.206;2023-01-16T15:36:15;407.02;;;103.63;;
23394;SDS011;11870;53.084;18.206;2023-01-16T15:38:45;196.95;;;53.30;;
23394;SDS011;11870;53.084;18.206;2023-01-16T15:41:17;231.07;;;67.90;;
23394;SDS011;11870;53.084;18.206;2023-01-16T15:43:44;55.45;;;18.08;;
23394;SDS011;11870;53.084;18.206;2023-01-16T15:49:10;93.43;;;36.30;;
23394;SDS011;11870;53.084;18.206;2023-01-16T15:51:54;40.45;;;16.05;;
23394;SDS011;11870;53.084;18.206;2023-01-16T15:54:21;16.95;;;7.72;;
23394;SDS011;11870;53.084;18.206;2023-01-16T15:56:47;21.98;;;10.40;;
23394;SDS011;11870;53.084;18.206;2023-01-16T15:59:31;32.88;;;13.80;;
23394;SDS011;11870;53.084;18.206;2023-01-16T16:02:16;20.80;;;7.40;;
23394;SDS011;11870;53.084;18.206;2023-01-16T16:04:50;30.63;;;9.45;;
23394;SDS011;11870;53.084;18.206;2023-01-16T16:07:19;26.02;;;9.13;;
23394;SDS011;11870;53.084;18.206;2023-01-16T16:09:48;25.95;;;11.45;;
23394;SDS011;11870;53.084;18.206;2023-01-16T16:12:19;15.32;;;8.07;;
23394;SDS011;11870;53.084;18.206;2023-01-16T16:14:46;107.70;;;31.77;;
23394;SDS011;11870;53.084;18.206;2023-01-16T16:17:35;202.00;;;55.30;;
23394;SDS011;11870;53.084;18.206;2023-01-16T16:20:27;343.23;;;92.50;;
23394;SDS011;11870;53.084;18.206;2023-01-16T16:22:56;267.48;;;76.38;;
23394;SDS011;11870;53.084;18.206;2023-01-16T16:27:53;65.40;;;18.35;;
23394;SDS011;11870;53.084;18.206;2023-01-16T16:30:24;113.53;;;29.23;;
23394;SDS011;11870;53.084;18.206;2023-01-16T16:32:52;26.08;;;9.23;;
23394;SDS011;11870;53.084;18.206;2023-01-16T16:35:27;98.20;;;27.60;;
23394;SDS011;11870;53.084;18.206;2023-01-16T16:37:59;72.90;;;20.08;;
23394;SDS011;11870;53.084;18.206;2023-01-16T16:40:26;30.52;;;8.88;;
23394;SDS011;11870;53.084;18.206;2023-01-16T16:42:53;36.85;;;12.20;;
23394;SDS011;11870;53.084;18.206;2023-01-16T16:45:21;22.00;;;8.50;;
23394;SDS011;11870;53.084;18.206;2023-01-16T16:47:49;46.20;;;16.33;;
23394;SDS011;11870;53.084;18.206;2023-01-16T16:50:46;53.92;;;19.67;;
23394;SDS011;11870;53.084;18.206;2023-01-16T16:53:16;22.23;;;10.52;;
23394;SDS011;11870;53.084;18.206;2023-01-16T16:55:50;18.08;;;8.10;;
23394;SDS011;11870;53.084;18.206;2023-01-16T16:58:18;26.38;;;9.27;;
23394;SDS011;11870;53.084;18.206;2023-01-16T17:00:47;16.85;;;7.03;;
23394;SDS011;11870;53.084;18.206;2023-01-16T17:03:17;30.75;;;11.60;;
23394;SDS011;11870;53.084;18.206;2023-01-16T17:05:45;169.70;;;53.30;;